Time;durP1;ratioP1;P1;durP2;ratioP2;P2;SDS_P1;SDS_P2;PMS_P1;PMS_P2;Temp;Humidity;BMP_temperature;BMP_pressure;BME280_temperature;BME280_humidity;BME280_pressure;Samples;Min_cycle;Max_cycle;Signal;HPM_P1;HPM_P2
2023/02/10 00:01:18;;;;;;;4.68;2.53;;;;;;;-0.85;67.57;100505.00;5088111;28;20043;-60
2023/02/10 00:03:45;;;;;;;5.25;2.08;;;;;;;-0.89;67.70;100511.69;5088787;28;20048;-63
2023/02/10 00:06:11;;;;;;;4.53;2.63;;;;;;;-0.83;67.40;100513.53;5089142;28;20503;-60
2023/02/10 00:08:38;;;;;;;6.43;2.80;;;;;;;-0.82;67.88;100499.97;5108647;28;20485;-60
2023/02/10 00:11:06;;;;;;;2.33;1.50;;;;;;;-0.83;67.16;100490.56;5108185;28;20122;-61
2023/02/10 00:13:32;;;;;;;5.18;3.40;;;;;;;-0.78;67.15;100499.19;5110307;28;20050;-61
2023/02/10 00:16:02;;;;;;;6.82;2.92;;;;;;;-0.76;67.30;100505.22;5108489;28;21711;-61
2023/02/10 00:18:28;;;;;;;6.35;2.03;;;;;;;-0.94;67.01;100459.69;5054468;28;20143;-60
2023/02/10 00:20:55;;;;;;;4.10;2.40;;;;;;;-1.01;66.71;100451.84;5071745;28;20036;-62
2023/02/10 00:23:21;;;;;;;6.93;3.03;;;;;;;-0.80;66.41;100488.09;5080565;28;20165;-60
2023/02/10 00:25:46;;;;;;;6.20;2.70;;;;;;;-0.86;66.10;100475.19;5090764;28;20184;-61
2023/02/10 00:28:12;;;;;;;5.97;2.97;;;;;;;-1.02;66.65;100461.19;5087460;28;20043;-60
2023/02/10 00:30:38;;;;;;;6.30;3.08;;;;;;;-0.87;66.46;100483.66;5088947;28;20134;-60
2023/02/10 00:33:05;;;;;;;4.10;2.28;;;;;;;-0.87;66.59;100478.56;5087761;28;20054;-60
2023/02/10 00:35:31;;;;;;;4.75;2.83;;;;;;;-1.03;66.40;100456.06;5109052;28;20118;-61
2023/02/10 00:37:57;;;;;;;4.85;2.60;;;;;;;-1.24;66.10;100418.13;5109201;28;20126;-60
2023/02/10 00:40:23;;;;;;;3.03;1.95;;;;;;;-0.99;66.46;100474.03;5101157;28;20058;-62
2023/02/10 00:42:48;;;;;;;7.40;3.15;;;;;;;-0.98;66.69;100474.88;5087354;28;20056;-62
2023/02/10 00:45:16;;;;;;;2.78;1.58;;;;;;;-0.99;66.24;100466.38;5106080;28;20059;-60
2023/02/10 00:47:42;;;;;;;5.65;2.50;;;;;;;-1.05;66.20;100463.69;5090747;28;20104;-61
2023/02/10 00:50:08;;;;;;;4.53;1.98;;;;;;;-1.06;66.57;100445.78;5107505;28;20075;-61
2023/02/10 00:52:34;;;;;;;3.03;1.63;;;;;;;-1.06;66.34;100461.97;5107988;28;20048;-60
2023/02/10 00:54:59;;;;;;;5.03;2.47;;;;;;;-1.09;66.19;100453.34;5107507;28;20067;-62
2023/02/10 00:57:26;;;;;;;4.95;2.55;;;;;;;-1.13;66.13;100471.97;5099057;28;20418;-60
2023/02/10 00:59:52;;;;;;;4.53;2.13;;;;;;;-1.17;66.49;100439.56;5087500;28;20040;-63
2023/02/10 01:02:18;;;;;;;3.53;2.08;;;;;;;-1.22;66.52;100431.78;5088435;28;20135;-61
2023/02/10 01:04:44;;;;;;;4.15;1.98;;;;;;;-1.21;66.35;100430.97;5096353;28;20126;-61
2023/02/10 01:07:09;;;;;;;6.40;2.78;;;;;;;-1.18;66.38;100443.78;5107606;28;20165;-62
2023/02/10 01:09:36;;;;;;;6.38;2.63;;;;;;;-1.16;66.39;100437.03;5107438;28;20104;-63
2023/02/10 01:12:01;;;;;;;4.80;2.67;;;;;;;-1.16;66.41;100420.88;5107782;28;20050;-61
2023/02/10 01:14:29;;;;;;;4.45;2.15;;;;;;;-1.16;66.32;100431.06;5086487;28;20056;-60
2023/02/10 01:16:55;;;;;;;9.57;3.45;;;;;;;-1.14;66.31;100422.63;5088471;28;20142;-61
2023/02/10 01:19:20;;;;;;;8.73;3.22;;;;;;;-1.05;66.10;100429.66;5090345;28;20047;-61
2023/02/10 01:21:47;;;;;;;4.65;2.30;;;;;;;-1.21;65.92;100404.59;5107340;28;20051;-61
2023/02/10 01:24:13;;;;;;;4.80;2.20;;;;;;;-1.32;66.16;100399.22;5108472;28;20399;-61
2023/02/10 01:26:39;;;;;;;5.47;2.97;;;;;;;-1.25;66.61;100395.97;5106573;28;20094;-62
2023/02/10 01:29:05;;;;;;;3.90;1.70;;;;;;;-1.24;66.34;100415.56;5108896;28;20562;-61
2023/02/10 01:31:31;;;;;;;7.22;3.20;;;;;;;-1.28;66.67;100385.72;5098659;28;20414;-61
2023/02/10 01:33:57;;;;;;;7.57;3.22;;;;;;;-1.27;66.74;100384.03;5088240;28;20503;-61
2023/02/10 01:36:24;;;;;;;6.53;2.63;;;;;;;-1.27;66.88;100381.47;5110087;28;20067;-62
2023/02/10 01:38:50;;;;;;;3.65;2.03;;;;;;;-1.34;66.98;100383.88;5111410;28;20578;-61
2023/02/10 01:41:18;;;;;;;8.88;3.65;;;;;;;-1.36;66.97;100369.38;5111244;28;20052;-62
2023/02/10 01:44:02;;;;;;;7.32;3.20;;;;;;;-1.33;66.90;100377.97;5112293;28;20056;-60
2023/02/10 01:46:33;;;;;;;11.35;3.65;;;;;;;-1.56;67.29;100337.41;5110683;28;20635;-61
2023/02/10 01:49:08;;;;;;;3.58;2.00;;;;;;;-1.40;67.26;100365.88;5094393;28;20044;-64
2023/02/10 01:51:49;;;;;;;9.13;3.30;;;;;;;-1.72;67.30;100320.88;5111915;28;20047;-62
2023/02/10 01:54:19;;;;;;;7.05;3.40;;;;;;;-1.39;67.50;100370.16;5112337;28;20081;-62
2023/02/10 01:56:46;;;;;;;6.70;3.00;;;;;;;-1.55;67.45;100329.81;5094003;28;20108;-62
2023/02/10 01:59:13;;;;;;;7.20;2.95;;;;;;;-1.31;67.55;100355.88;5110957;28;20043;-57
2023/02/10 02:01:39;;;;;;;6.72;3.35;;;;;;;-1.37;67.67;100367.66;5110534;28;20070;-61
2023/02/10 02:04:05;;;;;;;9.20;3.53;;;;;;;-1.45;67.39;100362.34;5077083;28;20554;-61
2023/02/10 02:06:32;;;;;;;10.75;4.50;;;;;;;-1.76;67.86;100306.34;5109814;28;20047;-60
2023/02/10 02:08:58;;;;;;;5.68;1.90;;;;;;;-1.45;68.04;100353.84;5076905;28;20035;-60
2023/02/10 02:11:46;;;;;;;5.85;3.22;;;;;;;-1.46;67.99;100345.31;5111519;28;20102;-61
2023/02/10 02:14:21;;;;;;;10.40;3.78;;;;;;;-1.44;67.93;100363.22;5093761;28;20047;-60
2023/02/10 02:17:00;;;;;;;7.32;2.65;;;;;;;-1.48;68.22;100347.00;5110714;28;20050;-60
2023/02/10 02:19:48;;;;;;;9.32;4.18;;;;;;;-1.49;67.97;100346.94;5093644;28;20043;-60
2023/02/10 02:22:49;;;;;;;5.38;3.05;;;;;;;-1.52;68.45;100318.84;5101012;28;20067;-59
2023/02/10 02:25:45;;;;;;;8.77;3.80;;;;;;;-1.50;68.35;100335.00;5110561;28;20491;-61
2023/02/10 02:28:19;;;;;;;6.68;2.67;;;;;;;-1.55;68.43;100319.59;5111810;28;20040;-60
2023/02/10 02:31:06;;;;;;;8.65;3.25;;;;;;;-1.58;68.21;100304.25;5111179;28;20510;-60
2023/02/10 02:33:49;;;;;;;3.72;2.00;;;;;;;-1.56;68.47;100312.78;5111633;28;20059;-62
2023/02/10 02:36:23;;;;;;;5.63;2.78;;;;;;;-1.60;68.22;100313.53;5092971;28;20040;-61
2023/02/10 02:38:50;;;;;;;8.00;3.47;;;;;;;-1.62;68.68;100299.88;5110172;28;20040;-60
2023/02/10 02:41:25;;;;;;;4.43;2.35;;;;;;;-1.56;68.73;100287.28;5092100;28;20142;-60
2023/02/10 02:43:53;;;;;;;6.50;3.17;;;;;;;-1.62;68.35;100274.38;5093201;28;20514;-59
2023/02/10 02:46:43;;;;;;;8.27;3.95;;;;;;;-1.59;68.66;100284.69;5110797;27;20046;-59
2023/02/10 02:49:18;;;;;;;11.75;4.45;;;;;;;-1.56;68.71;100281.31;5111314;28;20042;-57
2023/02/10 02:51:50;;;;;;;8.20;3.35;;;;;;;-1.56;68.67;100276.22;5110903;28;20032;-60
2023/02/10 02:54:54;;;;;;;6.28;2.92;;;;;;;-1.59;68.83;100271.06;5109801;28;20047;-61
2023/02/10 02:57:48;;;;;;;8.27;3.58;;;;;;;-1.60;68.50;100264.22;5080084;28;20579;-59
2023/02/10 03:00:18;;;;;;;7.40;3.40;;;;;;;-1.57;68.58;100270.25;5109474;28;20127;-63
2023/02/10 03:02:45;;;;;;;7.05;2.33;;;;;;;-1.57;68.69;100270.25;5109682;28;20043;-61
2023/02/10 03:05:16;;;;;;;9.45;4.20;;;;;;;-1.56;68.62;100266.03;5093083;28;20430;-62
2023/02/10 03:07:42;;;;;;;10.35;4.78;;;;;;;-1.76;68.81;100228.19;5072620;28;20550;-61
2023/02/10 03:10:08;;;;;;;8.80;3.75;;;;;;;-1.57;68.80;100246.47;5089435;28;20044;-61
2023/02/10 03:12:34;;;;;;;9.85;4.90;;;;;;;-1.55;68.99;100244.81;5072867;28;20066;-61
2023/02/10 03:15:00;;;;;;;11.05;5.18;;;;;;;-1.55;69.09;100238.03;5092821;28;20046;-61
2023/02/10 03:17:26;;;;;;;8.73;4.25;;;;;;;-1.56;68.98;100228.66;5108871;28;20040;-61
2023/02/10 03:19:52;;;;;;;10.57;4.80;;;;;;;-1.56;69.12;100231.19;5109320;28;20503;-60
2023/02/10 03:22:18;;;;;;;9.65;4.75;;;;;;;-1.55;69.09;100220.19;5109866;28;20039;-55
2023/02/10 03:24:44;;;;;;;8.20;3.20;;;;;;;-1.54;69.00;100216.81;5110616;28;20051;-57
2023/02/10 03:27:10;;;;;;;9.95;4.57;;;;;;;-1.56;68.99;100207.38;5110328;28;20039;-60
2023/02/10 03:29:36;;;;;;;11.48;4.97;;;;;;;-1.59;69.12;100192.91;5110584;28;20040;-58
2023/02/10 03:32:03;;;;;;;11.00;5.35;;;;;;;-1.61;69.27;100197.09;5110549;28;20043;-60
2023/02/10 03:34:29;;;;;;;14.48;4.80;;;;;;;-1.59;69.37;100192.03;5108815;28;20101;-58
2023/02/10 03:36:55;;;;;;;12.25;5.78;;;;;;;-1.51;69.13;100204.13;5108500;28;20035;-62
2023/02/10 03:39:21;;;;;;;13.95;5.53;;;;;;;-1.55;69.46;100179.38;5110083;28;20533;-62
2023/02/10 03:41:47;;;;;;;11.60;5.28;;;;;;;-1.51;69.24;100168.41;5110070;28;20043;-61
2023/02/10 03:44:13;;;;;;;12.93;5.57;;;;;;;-1.50;69.01;100166.72;5110328;28;20043;-60
2023/02/10 03:46:39;;;;;;;13.65;6.13;;;;;;;-1.47;69.17;100159.16;5110277;28;20043;-61
2023/02/10 03:49:05;;;;;;;14.30;7.07;;;;;;;-1.43;69.18;100164.38;5107600;28;20534;-61
2023/02/10 03:51:31;;;;;;;10.75;5.32;;;;;;;-1.44;69.24;100157.53;5107397;28;20043;-59
2023/02/10 03:53:57;;;;;;;14.45;6.30;;;;;;;-1.45;69.17;100153.25;5108689;28;20039;-60
2023/02/10 03:56:23;;;;;;;14.38;6.75;;;;;;;-1.43;69.02;100148.19;5108600;28;20332;-61
2023/02/10 03:58:49;;;;;;;13.95;6.10;;;;;;;-1.64;69.18;100119.69;5108636;28;20117;-60
2023/02/10 04:01:16;;;;;;;10.38;4.45;;;;;;;-1.51;69.22;100144.59;5109998;28;20047;-61
2023/02/10 04:03:44;;;;;;;12.20;6.63;;;;;;;-1.50;69.13;100129.34;5109929;28;20131;-61
2023/02/10 04:06:10;;;;;;;11.80;5.68;;;;;;;-1.65;69.30;100101.00;5109698;28;20047;-60
2023/02/10 04:08:36;;;;;;;9.65;4.07;;;;;;;-1.51;69.33;100129.31;5109167;28;20043;-61
2023/02/10 04:11:02;;;;;;;11.82;5.10;;;;;;;-1.44;69.31;100128.63;5109002;28;20507;-60
2023/02/10 04:13:28;;;;;;;16.55;6.45;;;;;;;-1.42;69.10;100139.72;5108318;28;20124;-52
2023/02/10 04:16:04;;;;;;;13.32;6.65;;;;;;;-1.48;69.16;100143.00;5109354;28;20122;-60
2023/02/10 04:18:30;;;;;;;14.75;6.50;;;;;;;-1.54;69.20;100137.78;5107823;28;20519;-58
2023/02/10 04:20:57;;;;;;;10.15;5.35;;;;;;;-1.66;69.47;100134.94;5108651;28;20035;-60
2023/02/10 04:23:23;;;;;;;12.82;5.65;;;;;;;-1.71;69.84;100126.34;5108893;28;20063;-62
2023/02/10 04:25:49;;;;;;;7.97;4.63;;;;;;;-1.78;69.96;100109.22;5109460;27;20147;-61
2023/02/10 04:28:15;;;;;;;13.73;6.20;;;;;;;-2.01;70.26;100072.16;5109119;28;20124;-59
2023/02/10 04:30:40;;;;;;;10.00;5.00;;;;;;;-1.86;70.27;100109.03;5104503;28;20754;-59
2023/02/10 04:33:06;;;;;;;12.05;6.28;;;;;;;-1.91;70.50;100086.84;5091094;28;20593;-59
2023/02/10 04:35:32;;;;;;;13.15;5.95;;;;;;;-1.97;70.51;100091.78;5088943;28;20208;-62
2023/02/10 04:37:58;;;;;;;14.43;4.93;;;;;;;-2.01;70.47;100085.78;5097238;28;20038;-62
2023/02/10 04:40:24;;;;;;;11.38;5.60;;;;;;;-2.00;70.82;100099.38;5087548;28;20043;-60
2023/02/10 04:42:50;;;;;;;8.48;4.13;;;;;;;-2.04;70.91;100108.63;5087336;28;20416;-61
2023/02/10 04:45:16;;;;;;;10.18;5.03;;;;;;;-2.07;70.96;100095.81;5088806;28;20185;-62
2023/02/10 04:47:42;;;;;;;15.20;6.30;;;;;;;-2.21;71.31;100064.09;5096058;28;20036;-59
2023/02/10 04:50:08;;;;;;;13.38;6.55;;;;;;;-1.96;71.20;100101.16;5098608;28;20062;-61
2023/02/10 04:52:34;;;;;;;13.30;6.60;;;;;;;-1.89;71.15;100108.13;5098385;28;20167;-60
2023/02/10 04:55:00;;;;;;;11.27;5.50;;;;;;;-1.87;71.38;100114.97;5097949;28;20028;-60
2023/02/10 04:57:25;;;;;;;9.75;4.90;;;;;;;-1.89;71.02;100105.56;5098182;28;20668;-62
2023/02/10 04:59:51;;;;;;;14.98;7.32;;;;;;;-1.89;70.99;100100.47;5097608;28;20035;-60
2023/02/10 05:02:17;;;;;;;13.45;5.57;;;;;;;-1.87;71.05;100101.34;5096516;28;20035;-61
2023/02/10 05:04:43;;;;;;;14.95;5.90;;;;;;;-1.89;71.05;100093.69;5105274;28;20532;-62
2023/02/10 05:07:09;;;;;;;12.20;6.00;;;;;;;-1.89;71.11;100091.16;5091397;28;20074;-61
2023/02/10 05:09:35;;;;;;;13.63;6.00;;;;;;;-2.08;71.05;100047.38;5106906;28;20044;-61
2023/02/10 05:12:01;;;;;;;15.57;7.38;;;;;;;-1.87;71.21;100088.63;5108592;28;20636;-60
2023/02/10 05:14:26;;;;;;;16.85;6.97;;;;;;;-1.90;71.19;100079.22;5096694;28;20070;-61
2023/02/10 05:16:52;;;;;;;12.50;5.32;;;;;;;-1.86;71.07;100086.09;5095701;28;20039;-64
2023/02/10 05:19:18;;;;;;;14.85;5.88;;;;;;;-1.86;71.15;100091.22;5112772;28;20027;-62
2023/02/10 05:21:44;;;;;;;13.95;5.88;;;;;;;-1.88;71.16;100100.50;5106689;28;20484;-62
2023/02/10 05:24:10;;;;;;;8.25;4.47;;;;;;;-1.88;70.98;100091.97;5105311;28;20044;-62
2023/02/10 05:26:36;;;;;;;12.80;5.88;;;;;;;-2.06;71.16;100050.84;5095622;28;20043;-61
2023/02/10 05:29:02;;;;;;;18.08;7.38;;;;;;;-1.89;71.26;100080.97;5109797;28;20051;-62
2023/02/10 05:31:28;;;;;;;16.80;7.00;;;;;;;-1.91;71.14;100072.41;5112415;28;20038;-60
2023/02/10 05:33:54;;;;;;;10.77;4.43;;;;;;;-2.12;71.18;100054.09;5111754;28;20039;-62
2023/02/10 05:36:21;;;;;;;17.35;8.02;;;;;;;-1.97;71.47;100063.75;5112402;28;20427;-60
2023/02/10 05:41:31;;;;;;;16.35;6.78;;;;;;;-2.24;71.52;100026.69;5111651;28;20032;-58
2023/02/10 05:43:57;;;;;;;14.20;6.90;;;;;;;-2.13;71.49;100042.19;5091415;28;20052;-56
2023/02/10 05:46:23;;;;;;;18.67;8.68;;;;;;;-2.17;71.85;100035.31;5095744;28;20083;-60
2023/02/10 05:48:49;;;;;;;13.07;5.88;;;;;;;-2.31;71.68;100018.88;5112107;28;20105;-65
2023/02/10 05:51:15;;;;;;;11.90;4.30;;;;;;;-2.13;72.00;100047.28;5110995;28;20062;-64
2023/02/10 05:53:40;;;;;;;9.70;4.18;;;;;;;-1.98;72.18;100047.63;5110274;28;20122;-61
2023/02/10 05:56:06;;;;;;;17.25;7.32;;;;;;;-1.95;71.67;100040.06;5112195;28;20095;-60
2023/02/10 05:58:32;;;;;;;16.15;7.13;;;;;;;-2.06;71.56;100002.44;5108605;28;20047;-60
2023/02/10 06:00:59;;;;;;;10.98;5.28;;;;;;;-1.62;71.31;100060.25;5109696;28;20035;-63
2023/02/10 06:03:25;;;;;;;13.27;6.00;;;;;;;-1.43;70.43;100030.91;5092453;28;20064;-60
2023/02/10 06:05:51;;;;;;;12.00;5.68;;;;;;;-1.62;69.81;99972.75;5110805;28;20120;-60
2023/02/10 06:08:17;;;;;;;13.98;5.85;;;;;;;-1.48;69.66;100018.06;5111746;28;20184;-61
2023/02/10 06:10:43;;;;;;;15.35;7.18;;;;;;;-1.92;69.83;99975.56;5112134;28;20043;-62
2023/02/10 06:13:09;;;;;;;14.68;6.53;;;;;;;-1.67;70.23;100027.88;5111823;28;20107;-62
2023/02/10 06:15:35;;;;;;;10.85;5.68;;;;;;;-1.53;70.46;100023.91;5110390;28;20083;-61
2023/02/10 06:18:01;;;;;;;14.32;6.85;;;;;;;-0.79;69.13;100016.75;5109835;28;20044;-60
2023/02/10 06:20:27;;;;;;;11.65;5.82;;;;;;;-0.02;68.02;100008.53;5109186;28;20536;-61
2023/02/10 06:22:52;;;;;;;15.50;7.43;;;;;;;0.59;65.94;99987.94;5109931;28;20050;-61
2023/02/10 06:25:18;;;;;;;13.75;5.45;;;;;;;1.40;64.34;100003.19;5111522;28;20039;-62
2023/02/10 06:27:44;;;;;;;12.57;6.20;;;;;;;0.66;62.73;99994.84;5109479;28;20043;-60
2023/02/10 06:30:10;;;;;;;7.47;4.07;;;;;;;-0.06;63.63;99993.16;5109732;28;20510;-58
2023/02/10 06:32:36;;;;;;;13.88;5.35;;;;;;;-0.49;64.81;99989.13;5111013;28;20028;-59
2023/02/10 06:35:03;;;;;;;14.77;6.93;;;;;;;-0.61;65.34;99964.28;5104293;28;20078;-60
2023/02/10 06:37:30;;;;;;;12.73;6.28;;;;;;;-0.49;65.34;99981.47;5108648;28;20039;-64
2023/02/10 06:39:55;;;;;;;10.63;4.35;;;;;;;-0.79;64.82;99928.28;5111183;28;20124;-62
2023/02/10 06:42:21;;;;;;;12.57;6.40;;;;;;;-0.72;64.96;99962.38;5110863;28;20522;-60
2023/02/10 06:44:47;;;;;;;11.98;6.13;;;;;;;-0.38;64.87;99949.28;5111304;28;20039;-61
2023/02/10 06:47:13;;;;;;;14.68;6.18;;;;;;;-0.10;63.80;99928.34;5109871;28;20107;-62
2023/02/10 06:49:39;;;;;;;14.57;6.57;;;;;;;0.32;62.95;99922.00;5111154;28;20043;-58
2023/02/10 06:52:05;;;;;;;12.80;5.60;;;;;;;0.17;62.37;99921.84;5111029;28;20032;-60
2023/02/10 06:54:31;;;;;;;10.13;4.57;;;;;;;-0.13;62.43;99914.69;5110887;28;20043;-61
2023/02/10 06:56:56;;;;;;;12.82;5.22;;;;;;;-0.03;62.99;99925.03;5110764;28;20399;-60
2023/02/10 06:59:22;;;;;;;11.55;5.75;;;;;;;-0.19;62.12;99910.34;5093028;28;20035;-61
2023/02/10 07:01:48;;;;;;;9.35;4.93;;;;;;;-0.46;62.80;99913.41;5110730;28;20507;-62
2023/02/10 07:04:15;;;;;;;13.77;6.32;;;;;;;0.30;62.73;99880.25;5109263;28;20517;-61
2023/02/10 07:06:40;;;;;;;10.70;5.55;;;;;;;1.39;60.29;99878.53;5109416;28;20067;-61
2023/02/10 07:09:06;;;;;;;13.30;6.05;;;;;;;1.70;58.74;99849.63;5109286;28;20047;-61
2023/02/10 07:11:33;;;;;;;10.30;5.03;;;;;;;2.17;56.54;99876.28;5110864;28;20089;-66
2023/02/10 07:13:59;;;;;;;8.27;4.97;;;;;;;2.39;56.97;99860.94;5110144;28;20047;-62
2023/02/10 07:16:25;;;;;;;15.95;6.93;;;;;;;2.87;55.80;99847.25;5109465;28;20134;-61
2023/02/10 07:18:51;;;;;;;16.30;7.32;;;;;;;3.48;53.95;99828.28;5110562;28;20215;-61
2023/02/10 07:21:17;;;;;;;12.52;6.05;;;;;;;4.04;52.19;99852.00;5088472;28;20523;-62
2023/02/10 07:23:42;;;;;;;11.38;5.45;;;;;;;4.31;51.50;99845.84;5096056;28;20040;-61
2023/02/10 07:26:10;;;;;;;8.82;5.35;;;;;;;4.84;50.72;99839.44;5108927;28;20044;-61
2023/02/10 07:28:36;;;;;;;10.38;5.72;;;;;;;5.16;49.30;99806.50;5110410;28;20368;-61
2023/02/10 07:31:02;;;;;;;12.57;5.43;;;;;;;5.66;48.36;99854.06;5110280;28;20092;-60
2023/02/10 07:33:28;;;;;;;11.85;6.53;;;;;;;5.24;48.41;99832.19;5109464;28;20423;-61
2023/02/10 07:35:54;;;;;;;12.18;6.78;;;;;;;5.50;48.83;99818.13;5109632;28;20047;-62
2023/02/10 07:38:19;;;;;;;11.65;5.63;;;;;;;6.54;47.27;99838.22;5108070;28;20058;-62
2023/02/10 07:40:45;;;;;;;12.52;5.82;;;;;;;6.65;45.64;99825.16;5091578;28;20525;-61
2023/02/10 07:43:11;;;;;;;10.98;6.18;;;;;;;6.84;44.83;99795.56;5109789;28;20051;-61
2023/02/10 07:45:43;;;;;;;14.10;6.65;;;;;;;6.34;45.47;99817.88;5092615;28;20061;-62
2023/02/10 07:48:09;;;;;;;11.80;6.07;;;;;;;5.92;45.74;99805.59;5108557;28;20120;-60
2023/02/10 07:50:35;;;;;;;10.05;5.28;;;;;;;4.66;46.93;99812.97;5108571;28;20073;-60
2023/02/10 07:53:01;;;;;;;17.25;9.02;;;;;;;3.86;47.72;99807.56;5108475;28;20056;-61
2023/02/10 07:55:27;;;;;;;13.27;6.95;;;;;;;3.16;49.13;99774.44;5109772;28;20031;-63
2023/02/10 07:57:53;;;;;;;15.13;7.22;;;;;;;2.97;49.90;99800.16;5109970;27;20462;-61
2023/02/10 08:00:19;;;;;;;12.75;5.85;;;;;;;2.94;49.68;99779.63;5109809;28;20042;-62
2023/02/10 08:02:45;;;;;;;14.45;7.47;;;;;;;3.53;49.47;99795.69;5109427;28;20134;-62
2023/02/10 08:05:11;;;;;;;10.02;4.80;;;;;;;4.20;48.43;99784.16;5109092;28;20036;-62
2023/02/10 08:07:37;;;;;;;10.35;5.38;;;;;;;3.58;48.10;99750.28;5109246;28;20062;-60
2023/02/10 08:10:03;;;;;;;15.23;6.97;;;;;;;4.43;47.84;99785.72;5107674;28;20578;-61
2023/02/10 08:12:30;;;;;;;8.80;3.92;;;;;;;5.35;45.80;99774.47;5108595;28;20040;-63
2023/02/10 08:14:55;;;;;;;13.95;6.97;;;;;;;6.47;44.93;99784.13;5107376;28;20792;-62
2023/02/10 08:17:21;;;;;;;9.93;5.18;;;;;;;6.98;43.01;99739.28;5107927;28;20111;-61
2023/02/10 08:19:47;;;;;;;6.22;3.50;;;;;;;6.39;43.23;99808.34;5107989;28;20071;-61
2023/02/10 08:22:13;;;;;;;12.25;6.03;;;;;;;4.95;45.27;99771.50;5108788;28;20135;-59
2023/02/10 08:24:38;;;;;;;8.82;4.95;;;;;;;4.77;45.68;99770.81;5108894;28;20576;-61
2023/02/10 08:27:05;;;;;;;12.43;6.88;;;;;;;4.23;46.59;99768.72;5109053;28;20567;-62
2023/02/10 08:29:31;;;;;;;13.90;5.70;;;;;;;3.89;47.51;99768.94;5107122;28;20089;-63
2023/02/10 08:31:57;;;;;;;8.32;4.60;;;;;;;3.53;47.89;99762.28;5107638;28;20067;-62
2023/02/10 08:34:23;;;;;;;10.05;5.78;;;;;;;3.13;48.55;99780.44;5107407;28;20070;-62
2023/02/10 08:36:49;;;;;;;8.00;4.30;;;;;;;4.12;47.40;99775.66;5109005;28;20472;-61
2023/02/10 08:39:15;;;;;;;6.72;4.00;;;;;;;5.13;45.64;99787.66;5069885;28;20048;-60
2023/02/10 08:41:41;;;;;;;11.75;6.25;;;;;;;5.75;44.47;99755.94;5089416;28;20044;-62
2023/02/10 08:44:07;;;;;;;8.75;4.55;;;;;;;6.59;43.00;99751.22;5106829;28;20431;-61
2023/02/10 08:46:34;;;;;;;8.30;4.82;;;;;;;6.16;42.97;99740.72;5108860;28;20469;-62
2023/02/10 08:49:00;;;;;;;13.07;5.97;;;;;;;5.62;43.61;99731.16;5109229;28;20035;-63
2023/02/10 08:51:27;;;;;;;9.48;5.05;;;;;;;5.04;44.57;99688.94;5091011;28;20126;-65
2023/02/10 08:53:55;;;;;;;11.75;5.20;;;;;;;4.85;44.33;99708.06;5108700;28;20028;-61
2023/02/10 08:56:22;;;;;;;12.25;6.82;;;;;;;4.50;45.67;99707.59;5107656;28;20093;-62
2023/02/10 08:58:50;;;;;;;9.00;4.68;;;;;;;4.50;45.28;99698.13;5108833;28;20507;-62
2023/02/10 09:01:21;;;;;;;8.73;5.00;;;;;;;3.94;45.66;99696.03;5109004;28;20138;-61
2023/02/10 09:03:47;;;;;;;10.95;4.72;;;;;;;3.49;46.71;99692.06;5108408;28;20118;-61
2023/02/10 09:06:20;;;;;;;11.27;6.00;;;;;;;3.41;47.33;99675.81;5107451;28;20396;-60
2023/02/10 09:08:47;;;;;;;7.65;3.25;;;;;;;3.19;47.14;99671.69;5107201;28;20042;-61
2023/02/10 09:11:15;;;;;;;12.98;5.93;;;;;;;2.77;47.76;99647.03;5108951;28;20109;-61
2023/02/10 09:13:41;;;;;;;9.27;4.13;;;;;;;2.74;47.82;99659.88;5108089;28;21648;-61
2023/02/10 09:16:07;;;;;;;8.60;4.70;;;;;;;2.53;48.01;99658.22;5108551;28;20043;-61
2023/02/10 09:18:33;;;;;;;8.52;3.92;;;;;;;2.41;48.44;99650.53;5108410;28;20050;-61
2023/02/10 09:21:00;;;;;;;13.27;6.00;;;;;;;2.34;48.63;99638.59;5108767;28;20431;-62
2023/02/10 09:23:27;;;;;;;8.52;3.75;;;;;;;2.29;48.61;99632.63;5108364;28;20039;-62
2023/02/10 09:25:57;;;;;;;9.35;3.72;;;;;;;2.31;48.77;99629.19;5108144;28;20058;-61
2023/02/10 09:28:24;;;;;;;6.93;3.83;;;;;;;2.00;48.99;99630.94;5106986;28;20077;-62
2023/02/10 09:30:50;;;;;;;8.82;4.28;;;;;;;1.77;48.99;99627.56;5108409;28;20052;-61
2023/02/10 09:33:16;;;;;;;6.15;3.15;;;;;;;1.63;49.22;99619.00;5108244;28;20043;-62
2023/02/10 09:35:42;;;;;;;10.90;3.63;;;;;;;1.58;49.40;99619.00;5107959;28;20058;-61
2023/02/10 09:38:09;;;;;;;4.65;2.80;;;;;;;1.53;49.54;99623.25;5090213;28;20048;-60
2023/02/10 09:40:53;;;;;;;8.35;4.95;;;;;;;1.45;49.67;99617.28;5108194;28;20101;-61
2023/02/10 09:43:31;;;;;;;8.25;3.92;;;;;;;1.42;50.09;99629.22;5108311;28;20430;-60
2023/02/10 09:46:10;;;;;;;13.10;3.53;;;;;;;1.34;50.19;99634.34;5107944;28;20035;-62
2023/02/10 09:49:11;;;;;;;9.75;3.42;;;;;;;1.39;50.42;99642.03;5108309;28;20028;-59
2023/02/10 09:52:05;;;;;;;11.90;4.15;;;;;;;1.25;50.39;99648.00;5025522;28;20124;-60
2023/02/10 09:54:33;;;;;;;9.55;5.00;;;;;;;1.17;50.42;99639.41;5106462;28;20047;-61
2023/02/10 09:57:11;;;;;;;7.40;3.72;;;;;;;1.35;50.57;99648.00;5093231;28;20043;-60
2023/02/10 09:59:38;;;;;;;9.57;4.38;;;;;;;1.39;50.41;99657.41;5093943;28;20039;-61
2023/02/10 10:02:29;;;;;;;10.48;4.00;;;;;;;1.41;50.74;99612.16;5110840;28;20053;-59
2023/02/10 10:04:56;;;;;;;10.75;3.95;;;;;;;1.53;50.58;99641.19;5111642;28;20043;-61
2023/02/10 10:07:26;;;;;;;10.07;4.55;;;;;;;1.64;50.35;99619.00;5110364;28;20073;-62
2023/02/10 10:10:07;;;;;;;9.63;3.97;;;;;;;1.63;50.43;99624.13;5111474;28;20039;-61
2023/02/10 10:12:34;;;;;;;9.50;3.45;;;;;;;1.63;50.04;99619.00;5110688;28;20051;-62
2023/02/10 10:14:59;;;;;;;9.30;4.22;;;;;;;1.60;50.25;99584.00;5110168;28;20104;-59
2023/02/10 10:17:45;;;;;;;6.88;3.15;;;;;;;1.66;49.53;99590.81;5111513;28;20498;-60
2023/02/10 10:20:36;;;;;;;6.28;3.45;;;;;;;1.59;49.50;99600.22;5110369;28;20622;-63
2023/02/10 10:23:29;;;;;;;10.40;3.45;;;;;;;1.65;49.74;99582.28;5110300;28;20522;-62
2023/02/10 10:26:02;;;;;;;8.13;3.60;;;;;;;1.62;49.89;99566.06;5111006;28;20043;-63
2023/02/10 10:28:41;;;;;;;8.07;3.40;;;;;;;1.50;49.74;99540.44;5109892;28;20051;-62
2023/02/10 10:31:13;;;;;;;10.68;4.35;;;;;;;1.56;49.87;99584.84;5108747;28;20036;-61
2023/02/10 10:33:53;;;;;;;7.35;3.25;;;;;;;1.30;49.75;99570.31;5111231;27;20036;-62
2023/02/10 10:36:42;;;;;;;7.13;3.20;;;;;;;1.16;49.76;99555.78;5109124;28;20120;-61
2023/02/10 10:39:28;;;;;;;5.88;3.72;;;;;;;1.25;49.76;99562.63;5096895;28;20089;-61
2023/02/10 10:41:55;;;;;;;4.90;2.30;;;;;;;1.23;49.67;99533.59;5111195;28;20039;-61
2023/02/10 10:44:21;;;;;;;6.93;3.58;;;;;;;1.11;49.36;99521.63;5111133;28;20473;-63
2023/02/10 10:46:50;;;;;;;11.88;5.22;;;;;;;1.32;49.87;99535.31;5109135;28;20047;-63
2023/02/10 10:49:16;;;;;;;10.73;4.27;;;;;;;1.30;49.49;99565.19;5110016;28;20050;-61
2023/02/10 10:51:42;;;;;;;14.40;4.85;;;;;;;1.20;49.08;99541.28;5092942;28;20035;-61
2023/02/10 10:54:15;;;;;;;6.72;3.72;;;;;;;1.23;49.70;99533.59;5109466;28;20063;-62
2023/02/10 10:56:49;;;;;;;7.30;3.85;;;;;;;1.27;49.32;99531.03;5092790;28;20043;-61
2023/02/10 10:59:18;;;;;;;12.32;4.63;;;;;;;1.31;49.02;99528.50;5109476;28;20040;-62
2023/02/10 11:01:46;;;;;;;6.23;3.63;;;;;;;1.30;48.99;99550.69;5110894;28;20415;-61
2023/02/10 11:04:13;;;;;;;6.03;3.40;;;;;;;0.96;48.49;99502.84;5110584;28;20039;-61
2023/02/10 11:06:40;;;;;;;8.20;3.80;;;;;;;1.05;48.69;99506.25;5110779;28;20116;-60
2023/02/10 11:09:21;;;;;;;8.60;4.07;;;;;;;1.05;48.70;99534.44;5109165;28;20044;-60
2023/02/10 11:11:47;;;;;;;7.57;3.47;;;;;;;0.65;48.46;99449.09;5055674;28;20096;-60
2023/02/10 11:14:21;;;;;;;12.30;3.80;;;;;;;1.01;48.46;99498.59;5093143;28;20047;-61
2023/02/10 11:16:53;;;;;;;9.82;4.15;;;;;;;1.01;48.95;99494.31;5108865;28;20058;-61
2023/02/10 11:19:23;;;;;;;8.57;4.32;;;;;;;1.08;48.32;99500.31;5110635;28;20035;-61
2023/02/10 11:21:50;;;;;;;9.30;3.58;;;;;;;1.01;48.48;99473.00;5107906;28;20112;-61
2023/02/10 11:24:19;;;;;;;11.95;4.78;;;;;;;1.11;48.90;99480.69;5109046;28;20431;-62
2023/02/10 11:26:57;;;;;;;9.65;4.60;;;;;;;1.17;48.64;99477.25;5109734;28;20523;-60
2023/02/10 11:29:24;;;;;;;12.50;5.10;;;;;;;1.22;48.53;99478.13;5110013;28;20135;-62
2023/02/10 11:31:52;;;;;;;9.43;4.15;;;;;;;1.19;48.21;99468.75;5108887;28;20035;-61
2023/02/10 11:34:40;;;;;;;12.07;3.72;;;;;;;1.18;48.52;99463.63;5108526;28;20392;-62
2023/02/10 11:37:12;;;;;;;13.05;4.35;;;;;;;1.09;48.84;99459.38;5091869;28;20039;-60
2023/02/10 11:39:43;;;;;;;8.45;3.65;;;;;;;1.13;48.81;99480.69;5108909;28;20467;-62